sensor_id;sensor_type;location;lat;lon;timestamp;P1;durP1;ratioP1;P2;durP2;ratioP2
81523;SDS011;70954;49.500;10.416;2023-07-31T00:01:40;1.00;;;0.70;;
81523;SDS011;70954;49.500;10.416;2023-07-31T00:04:05;1.58;;;0.73;;
81523;SDS011;70954;49.500;10.416;2023-07-31T00:06:31;1.83;;;0.70;;
81523;SDS011;70954;49.500;10.416;2023-07-31T00:08:56;2.25;;;0.70;;
81523;SDS011;70954;49.500;10.416;2023-07-31T00:11:21;2.58;;;0.70;;
81523;SDS011;70954;49.500;10.416;2023-07-31T00:13:47;1.30;;;0.65;;
81523;SDS011;70954;49.500;10.416;2023-07-31T00:16:12;1.48;;;0.60;;
81523;SDS011;70954;49.500;10.416;2023-07-31T00:18:38;2.00;;;0.70;;
81523;SDS011;70954;49.500;10.416;2023-07-31T00:21:03;1.48;;;0.80;;
81523;SDS011;70954;49.500;10.416;2023-07-31T00:23:29;1.83;;;0.75;;
81523;SDS011;70954;49.500;10.416;2023-07-31T00:25:54;1.40;;;0.60;;
81523;SDS011;70954;49.500;10.416;2023-07-31T00:28:20;1.65;;;0.75;;
81523;SDS011;70954;49.500;10.416;2023-07-31T00:30:45;1.40;;;0.80;;
81523;SDS011;70954;49.500;10.416;2023-07-31T00:33:10;2.20;;;0.80;;
81523;SDS011;70954;49.500;10.416;2023-07-31T00:35:36;2.70;;;0.63;;
81523;SDS011;70954;49.500;10.416;2023-07-31T00:38:01;0.80;;;0.60;;
81523;SDS011;70954;49.500;10.416;2023-07-31T00:40:27;0.93;;;0.60;;
81523;SDS011;70954;49.500;10.416;2023-07-31T00:42:52;1.48;;;0.70;;
81523;SDS011;70954;49.500;10.416;2023-07-31T00:45:18;3.50;;;0.80;;
81523;SDS011;70954;49.500;10.416;2023-07-31T00:47:43;2.42;;;0.68;;
81523;SDS011;70954;49.500;10.416;2023-07-31T00:50:09;1.55;;;0.60;;
81523;SDS011;70954;49.500;10.416;2023-07-31T00:52:35;1.13;;;0.70;;
81523;SDS011;70954;49.500;10.416;2023-07-31T00:55:00;1.20;;;0.70;;
81523;SDS011;70954;49.500;10.416;2023-07-31T00:57:26;1.15;;;0.68;;
81523;SDS011;70954;49.500;10.416;2023-07-31T00:59:52;1.98;;;0.70;;
81523;SDS011;70954;49.500;10.416;2023-07-31T01:02:17;2.60;;;0.70;;
81523;SDS011;70954;49.500;10.416;2023-07-31T01:04:43;1.20;;;0.63;;
81523;SDS011;70954;49.500;10.416;2023-07-31T01:07:13;1.20;;;0.70;;
81523;SDS011;70954;49.500;10.416;2023-07-31T01:09:56;2.85;;;0.70;;
81523;SDS011;70954;49.500;10.416;2023-07-31T01:12:47;2.10;;;0.80;;
81523;SDS011;70954;49.500;10.416;2023-07-31T01:15:13;1.30;;;0.60;;
81523;SDS011;70954;49.500;10.416;2023-07-31T01:17:39;1.77;;;0.80;;
81523;SDS011;70954;49.500;10.416;2023-07-31T01:20:10;1.85;;;0.73;;
81523;SDS011;70954;49.500;10.416;2023-07-31T01:28:23;1.20;;;0.70;;
81523;SDS011;70954;49.500;10.416;2023-07-31T01:30:57;2.17;;;0.80;;
81523;SDS011;70954;49.500;10.416;2023-07-31T01:33:24;1.52;;;0.73;;
81523;SDS011;70954;49.500;10.416;2023-07-31T01:35:50;1.83;;;0.70;;
81523;SDS011;70954;49.500;10.416;2023-07-31T01:38:20;1.70;;;0.73;;
81523;SDS011;70954;49.500;10.416;2023-07-31T01:40:46;0.77;;;0.60;;
81523;SDS011;70954;49.500;10.416;2023-07-31T01:43:16;1.80;;;0.88;;
81523;SDS011;70954;49.500;10.416;2023-07-31T01:45:42;2.85;;;0.80;;
81523;SDS011;70954;49.500;10.416;2023-07-31T01:48:07;2.30;;;0.77;;
81523;SDS011;70954;49.500;10.416;2023-07-31T01:50:33;1.38;;;0.77;;
81523;SDS011;70954;49.500;10.416;2023-07-31T01:52:58;1.40;;;0.68;;
81523;SDS011;70954;49.500;10.416;2023-07-31T01:55:23;2.03;;;1.00;;
81523;SDS011;70954;49.500;10.416;2023-07-31T01:57:49;1.10;;;0.70;;
81523;SDS011;70954;49.500;10.416;2023-07-31T02:00:14;1.05;;;0.73;;
81523;SDS011;70954;49.500;10.416;2023-07-31T02:02:40;0.70;;;0.63;;
81523;SDS011;70954;49.500;10.416;2023-07-31T02:05:05;1.13;;;0.60;;
81523;SDS011;70954;49.500;10.416;2023-07-31T02:07:31;1.52;;;0.77;;
81523;SDS011;70954;49.500;10.416;2023-07-31T02:09:57;2.63;;;0.70;;
81523;SDS011;70954;49.500;10.416;2023-07-31T02:12:22;2.25;;;0.77;;
81523;SDS011;70954;49.500;10.416;2023-07-31T02:14:47;1.63;;;0.70;;
81523;SDS011;70954;49.500;10.416;2023-07-31T02:17:13;2.47;;;0.70;;
81523;SDS011;70954;49.500;10.416;2023-07-31T02:19:38;1.15;;;0.90;;
81523;SDS011;70954;49.500;10.416;2023-07-31T02:22:04;1.00;;;0.70;;
81523;SDS011;70954;49.500;10.416;2023-07-31T02:24:29;0.90;;;0.70;;
81523;SDS011;70954;49.500;10.416;2023-07-31T02:26:55;1.50;;;0.73;;
81523;SDS011;70954;49.500;10.416;2023-07-31T02:29:20;1.40;;;0.68;;
81523;SDS011;70954;49.500;10.416;2023-07-31T02:31:46;2.03;;;0.80;;
81523;SDS011;70954;49.500;10.416;2023-07-31T02:34:11;0.80;;;0.68;;
81523;SDS011;70954;49.500;10.416;2023-07-31T02:36:37;1.15;;;0.70;;
81523;SDS011;70954;49.500;10.416;2023-07-31T02:39:02;2.28;;;0.80;;
81523;SDS011;70954;49.500;10.416;2023-07-31T02:41:28;2.15;;;0.82;;
81523;SDS011;70954;49.500;10.416;2023-07-31T02:43:53;2.80;;;0.73;;
81523;SDS011;70954;49.500;10.416;2023-07-31T02:46:19;1.98;;;0.75;;
81523;SDS011;70954;49.500;10.416;2023-07-31T02:48:44;0.68;;;0.60;;
81523;SDS011;70954;49.500;10.416;2023-07-31T02:51:10;1.42;;;0.70;;
81523;SDS011;70954;49.500;10.416;2023-07-31T02:53:35;1.02;;;0.77;;
81523;SDS011;70954;49.500;10.416;2023-07-31T02:56:01;1.00;;;0.68;;
81523;SDS011;70954;49.500;10.416;2023-07-31T02:58:26;1.88;;;0.68;;
81523;SDS011;70954;49.500;10.416;2023-07-31T03:00:51;1.02;;;0.65;;
81523;SDS011;70954;49.500;10.416;2023-07-31T03:03:17;0.90;;;0.75;;
81523;SDS011;70954;49.500;10.416;2023-07-31T03:05:42;2.15;;;0.80;;
81523;SDS011;70954;49.500;10.416;2023-07-31T03:08:08;2.25;;;0.70;;
81523;SDS011;70954;49.500;10.416;2023-07-31T03:10:33;1.42;;;0.70;;
81523;SDS011;70954;49.500;10.416;2023-07-31T03:12:59;1.00;;;0.80;;
81523;SDS011;70954;49.500;10.416;2023-07-31T03:15:24;1.65;;;0.60;;
81523;SDS011;70954;49.500;10.416;2023-07-31T03:17:50;0.98;;;0.70;;
81523;SDS011;70954;49.500;10.416;2023-07-31T03:20:15;1.10;;;0.80;;
81523;SDS011;70954;49.500;10.416;2023-07-31T03:22:40;2.22;;;0.70;;
81523;SDS011;70954;49.500;10.416;2023-07-31T03:25:06;0.93;;;0.75;;
81523;SDS011;70954;49.500;10.416;2023-07-31T03:27:32;1.00;;;0.80;;
81523;SDS011;70954;49.500;10.416;2023-07-31T03:29:57;2.90;;;0.90;;
81523;SDS011;70954;49.500;10.416;2023-07-31T03:32:24;2.15;;;0.80;;
81523;SDS011;70954;49.500;10.416;2023-07-31T03:34:49;1.27;;;0.60;;
81523;SDS011;70954;49.500;10.416;2023-07-31T03:37:14;3.58;;;0.80;;
81523;SDS011;70954;49.500;10.416;2023-07-31T03:39:40;1.10;;;0.70;;
81523;SDS011;70954;49.500;10.416;2023-07-31T03:42:06;1.65;;;0.82;;
81523;SDS011;70954;49.500;10.416;2023-07-31T03:44:31;1.77;;;0.73;;
81523;SDS011;70954;49.500;10.416;2023-07-31T03:46:56;3.67;;;0.63;;
81523;SDS011;70954;49.500;10.416;2023-07-31T03:49:22;0.85;;;0.68;;
81523;SDS011;70954;49.500;10.416;2023-07-31T03:51:47;1.70;;;0.77;;
81523;SDS011;70954;49.500;10.416;2023-07-31T03:54:13;1.73;;;0.70;;
81523;SDS011;70954;49.500;10.416;2023-07-31T03:56:38;3.13;;;0.80;;
81523;SDS011;70954;49.500;10.416;2023-07-31T03:59:04;1.75;;;0.80;;
81523;SDS011;70954;49.500;10.416;2023-07-31T04:01:30;1.20;;;0.80;;
81523;SDS011;70954;49.500;10.416;2023-07-31T04:03:55;1.15;;;0.80;;
81523;SDS011;70954;49.500;10.416;2023-07-31T04:06:21;2.45;;;0.82;;
81523;SDS011;70954;49.500;10.416;2023-07-31T04:08:46;2.17;;;0.70;;
81523;SDS011;70954;49.500;10.416;2023-07-31T04:11:11;1.83;;;0.82;;
81523;SDS011;70954;49.500;10.416;2023-07-31T04:13:37;1.77;;;0.82;;
81523;SDS011;70954;49.500;10.416;2023-07-31T04:16:03;2.78;;;0.80;;
81523;SDS011;70954;49.500;10.416;2023-07-31T04:18:28;1.05;;;0.73;;
81523;SDS011;70954;49.500;10.416;2023-07-31T04:20:54;2.58;;;0.90;;
81523;SDS011;70954;49.500;10.416;2023-07-31T04:23:19;4.18;;;0.90;;
81523;SDS011;70954;49.500;10.416;2023-07-31T04:25:45;2.15;;;0.90;;
81523;SDS011;70954;49.500;10.416;2023-07-31T04:28:10;1.58;;;0.70;;
81523;SDS011;70954;49.500;10.416;2023-07-31T04:30:36;1.98;;;0.80;;
81523;SDS011;70954;49.500;10.416;2023-07-31T04:33:01;1.33;;;0.80;;
81523;SDS011;70954;49.500;10.416;2023-07-31T04:35:27;1.13;;;0.65;;
81523;SDS011;70954;49.500;10.416;2023-07-31T04:37:52;1.52;;;0.90;;
81523;SDS011;70954;49.500;10.416;2023-07-31T04:40:18;1.58;;;0.77;;
81523;SDS011;70954;49.500;10.416;2023-07-31T04:42:43;1.85;;;0.70;;
81523;SDS011;70954;49.500;10.416;2023-07-31T04:45:09;1.00;;;0.70;;
81523;SDS011;70954;49.500;10.416;2023-07-31T04:47:34;1.77;;;0.90;;
81523;SDS011;70954;49.500;10.416;2023-07-31T04:50:00;1.60;;;0.70;;
81523;SDS011;70954;49.500;10.416;2023-07-31T04:52:25;1.23;;;0.75;;
81523;SDS011;70954;49.500;10.416;2023-07-31T04:54:51;1.33;;;0.80;;
81523;SDS011;70954;49.500;10.416;2023-07-31T04:57:16;1.63;;;1.15;;
81523;SDS011;70954;49.500;10.416;2023-07-31T04:59:42;1.85;;;1.00;;
81523;SDS011;70954;49.500;10.416;2023-07-31T05:02:08;1.02;;;0.80;;
81523;SDS011;70954;49.500;10.416;2023-07-31T05:04:34;1.77;;;0.90;;
81523;SDS011;70954;49.500;10.416;2023-07-31T05:06:59;1.60;;;0.90;;
81523;SDS011;70954;49.500;10.416;2023-07-31T05:09:24;1.73;;;0.90;;
81523;SDS011;70954;49.500;10.416;2023-07-31T05:11:50;2.33;;;0.70;;
81523;SDS011;70954;49.500;10.416;2023-07-31T05:14:15;3.08;;;0.80;;
81523;SDS011;70954;49.500;10.416;2023-07-31T05:16:41;1.85;;;0.70;;
81523;SDS011;70954;49.500;10.416;2023-07-31T05:19:06;2.58;;;0.95;;
81523;SDS011;70954;49.500;10.416;2023-07-31T05:21:32;1.73;;;0.80;;
81523;SDS011;70954;49.500;10.416;2023-07-31T05:23:57;2.00;;;0.90;;
81523;SDS011;70954;49.500;10.416;2023-07-31T05:26:23;2.95;;;1.10;;
81523;SDS011;70954;49.500;10.416;2023-07-31T05:28:48;3.72;;;1.15;;
81523;SDS011;70954;49.500;10.416;2023-07-31T05:31:14;2.00;;;0.95;;
81523;SDS011;70954;49.500;10.416;2023-07-31T05:33:39;1.88;;;0.88;;
81523;SDS011;70954;49.500;10.416;2023-07-31T05:36:05;1.75;;;0.90;;
81523;SDS011;70954;49.500;10.416;2023-07-31T05:38:30;1.70;;;0.85;;
81523;SDS011;70954;49.500;10.416;2023-07-31T05:40:56;1.50;;;1.00;;
81523;SDS011;70954;49.500;10.416;2023-07-31T05:43:21;2.55;;;0.90;;
81523;SDS011;70954;49.500;10.416;2023-07-31T05:45:47;2.03;;;0.95;;
81523;SDS011;70954;49.500;10.416;2023-07-31T05:48:12;1.20;;;0.80;;
81523;SDS011;70954;49.500;10.416;2023-07-31T05:50:38;2.33;;;1.02;;
81523;SDS011;70954;49.500;10.416;2023-07-31T05:53:03;2.03;;;1.10;;
81523;SDS011;70954;49.500;10.416;2023-07-31T05:55:28;1.13;;;0.90;;
81523;SDS011;70954;49.500;10.416;2023-07-31T05:57:54;1.92;;;0.90;;
81523;SDS011;70954;49.500;10.416;2023-07-31T06:00:20;1.23;;;0.80;;
81523;SDS011;70954;49.500;10.416;2023-07-31T06:02:46;1.48;;;0.82;;
81523;SDS011;70954;49.500;10.416;2023-07-31T06:05:12;2.20;;;1.00;;
81523;SDS011;70954;49.500;10.416;2023-07-31T06:07:37;1.23;;;0.80;;
81523;SDS011;70954;49.500;10.416;2023-07-31T06:10:03;2.38;;;0.95;;
81523;SDS011;70954;49.500;10.416;2023-07-31T06:12:29;2.05;;;0.75;;
81523;SDS011;70954;49.500;10.416;2023-07-31T06:14:54;1.60;;;0.90;;
81523;SDS011;70954;49.500;10.416;2023-07-31T06:17:20;3.50;;;1.00;;
81523;SDS011;70954;49.500;10.416;2023-07-31T06:19:45;4.55;;;0.95;;
81523;SDS011;70954;49.500;10.416;2023-07-31T06:22:11;1.20;;;0.90;;
81523;SDS011;70954;49.500;10.416;2023-07-31T06:24:36;1.42;;;0.80;;
81523;SDS011;70954;49.500;10.416;2023-07-31T06:27:02;2.20;;;1.02;;
81523;SDS011;70954;49.500;10.416;2023-07-31T06:29:27;1.20;;;0.80;;
81523;SDS011;70954;49.500;10.416;2023-07-31T06:31:53;1.60;;;0.90;;
81523;SDS011;70954;49.500;10.416;2023-07-31T06:34:18;2.85;;;1.20;;
81523;SDS011;70954;49.500;10.416;2023-07-31T06:36:44;1.98;;;1.10;;
81523;SDS011;70954;49.500;10.416;2023-07-31T06:39:09;2.22;;;0.93;;
81523;SDS011;70954;49.500;10.416;2023-07-31T06:41:35;2.70;;;0.90;;
81523;SDS011;70954;49.500;10.416;2023-07-31T06:44:00;3.75;;;1.00;;
81523;SDS011;70954;49.500;10.416;2023-07-31T06:46:25;2.90;;;1.10;;
81523;SDS011;70954;49.500;10.416;2023-07-31T06:48:51;2.78;;;0.95;;
81523;SDS011;70954;49.500;10.416;2023-07-31T06:51:16;1.70;;;0.95;;
81523;SDS011;70954;49.500;10.416;2023-07-31T06:53:42;2.58;;;1.00;;
81523;SDS011;70954;49.500;10.416;2023-07-31T06:56:07;1.50;;;0.90;;
81523;SDS011;70954;49.500;10.416;2023-07-31T06:58:33;1.95;;;1.02;;
81523;SDS011;70954;49.500;10.416;2023-07-31T07:00:58;2.03;;;1.08;;
81523;SDS011;70954;49.500;10.416;2023-07-31T07:03:24;2.45;;;0.95;;
81523;SDS011;70954;49.500;10.416;2023-07-31T07:05:49;2.35;;;1.00;;
81523;SDS011;70954;49.500;10.416;2023-07-31T07:08:14;4.25;;;1.15;;
81523;SDS011;70954;49.500;10.416;2023-07-31T07:10:40;3.05;;;1.30;;
81523;SDS011;70954;49.500;10.416;2023-07-31T07:13:05;1.88;;;1.00;;
81523;SDS011;70954;49.500;10.416;2023-07-31T07:15:31;2.05;;;1.15;;
81523;SDS011;70954;49.500;10.416;2023-07-31T07:17:56;3.42;;;1.30;;
81523;SDS011;70954;49.500;10.416;2023-07-31T07:20:22;1.67;;;0.82;;
81523;SDS011;70954;49.500;10.416;2023-07-31T07:22:47;3.08;;;1.30;;
81523;SDS011;70954;49.500;10.416;2023-07-31T07:25:12;2.78;;;1.27;;
81523;SDS011;70954;49.500;10.416;2023-07-31T07:27:38;1.92;;;1.17;;
81523;SDS011;70954;49.500;10.416;2023-07-31T07:30:04;1.63;;;1.02;;
81523;SDS011;70954;49.500;10.416;2023-07-31T07:32:29;3.17;;;1.20;;
81523;SDS011;70954;49.500;10.416;2023-07-31T07:34:55;2.38;;;1.20;;
81523;SDS011;70954;49.500;10.416;2023-07-31T07:37:20;2.28;;;1.17;;
81523;SDS011;70954;49.500;10.416;2023-07-31T07:39:46;2.10;;;1.10;;
81523;SDS011;70954;49.500;10.416;2023-07-31T07:42:11;2.78;;;1.17;;
81523;SDS011;70954;49.500;10.416;2023-07-31T07:44:37;3.38;;;1.20;;
81523;SDS011;70954;49.500;10.416;2023-07-31T07:47:02;4.07;;;1.30;;
81523;SDS011;70954;49.500;10.416;2023-07-31T07:49:28;3.47;;;1.10;;
81523;SDS011;70954;49.500;10.416;2023-07-31T07:51:53;5.25;;;1.52;;
81523;SDS011;70954;49.500;10.416;2023-07-31T07:54:19;2.30;;;1.17;;
81523;SDS011;70954;49.500;10.416;2023-07-31T07:56:44;4.22;;;1.05;;
81523;SDS011;70954;49.500;10.416;2023-07-31T07:59:10;3.47;;;1.10;;
81523;SDS011;70954;49.500;10.416;2023-07-31T08:01:35;2.28;;;1.20;;
81523;SDS011;70954;49.500;10.416;2023-07-31T08:04:01;3.30;;;1.15;;
81523;SDS011;70954;49.500;10.416;2023-07-31T08:06:26;2.13;;;1.25;;
81523;SDS011;70954;49.500;10.416;2023-07-31T08:08:52;2.58;;;1.10;;
81523;SDS011;70954;49.500;10.416;2023-07-31T08:11:17;2.10;;;0.95;;
81523;SDS011;70954;49.500;10.416;2023-07-31T08:13:42;3.33;;;1.10;;
81523;SDS011;70954;49.500;10.416;2023-07-31T08:16:08;3.08;;;1.02;;
81523;SDS011;70954;49.500;10.416;2023-07-31T08:18:33;2.70;;;1.00;;
81523;SDS011;70954;49.500;10.416;2023-07-31T08:20:59;3.22;;;1.13;;
81523;SDS011;70954;49.500;10.416;2023-07-31T08:23:26;4.32;;;1.17;;
81523;SDS011;70954;49.500;10.416;2023-07-31T08:25:51;3.53;;;1.20;;
81523;SDS011;70954;49.500;10.416;2023-07-31T08:28:17;2.40;;;1.10;;
81523;SDS011;70954;49.500;10.416;2023-07-31T08:30:42;2.10;;;1.08;;
81523;SDS011;70954;49.500;10.416;2023-07-31T08:33:07;3.20;;;1.10;;
81523;SDS011;70954;49.500;10.416;2023-07-31T08:35:34;3.67;;;1.10;;
81523;SDS011;70954;49.500;10.416;2023-07-31T08:37:59;2.28;;;1.10;;
81523;SDS011;70954;49.500;10.416;2023-07-31T08:40:25;2.30;;;1.13;;
81523;SDS011;70954;49.500;10.416;2023-07-31T08:42:52;2.63;;;1.30;;
81523;SDS011;70954;49.500;10.416;2023-07-31T08:45:19;2.75;;;1.08;;
81523;SDS011;70954;49.500;10.416;2023-07-31T08:47:46;1.95;;;1.10;;
81523;SDS011;70954;49.500;10.416;2023-07-31T08:50:13;1.55;;;0.90;;
81523;SDS011;70954;49.500;10.416;2023-07-31T08:52:39;2.55;;;1.30;;
81523;SDS011;70954;49.500;10.416;2023-07-31T08:55:05;3.72;;;1.30;;
81523;SDS011;70954;49.500;10.416;2023-07-31T08:57:31;3.53;;;1.50;;
81523;SDS011;70954;49.500;10.416;2023-07-31T08:59:59;2.42;;;1.20;;
81523;SDS011;70954;49.500;10.416;2023-07-31T09:02:26;1.75;;;1.10;;
81523;SDS011;70954;49.500;10.416;2023-07-31T09:04:59;3.03;;;1.30;;
81523;SDS011;70954;49.500;10.416;2023-07-31T09:07:26;3.15;;;1.30;;
81523;SDS011;70954;49.500;10.416;2023-07-31T09:09:52;2.00;;;1.20;;
81523;SDS011;70954;49.500;10.416;2023-07-31T09:12:17;3.58;;;1.40;;
81523;SDS011;70954;49.500;10.416;2023-07-31T09:14:43;2.78;;;1.27;;
81523;SDS011;70954;49.500;10.416;2023-07-31T09:17:11;4.28;;;1.10;;
81523;SDS011;70954;49.500;10.416;2023-07-31T09:19:36;3.47;;;1.23;;
81523;SDS011;70954;49.500;10.416;2023-07-31T09:22:02;3.50;;;1.25;;
81523;SDS011;70954;49.500;10.416;2023-07-31T09:24:28;2.58;;;1.20;;
81523;SDS011;70954;49.500;10.416;2023-07-31T09:26:54;2.60;;;1.42;;
81523;SDS011;70954;49.500;10.416;2023-07-31T09:29:20;2.38;;;1.30;;
81523;SDS011;70954;49.500;10.416;2023-07-31T09:31:46;2.70;;;1.33;;
81523;SDS011;70954;49.500;10.416;2023-07-31T09:34:11;3.53;;;1.20;;
81523;SDS011;70954;49.500;10.416;2023-07-31T09:36:44;3.45;;;1.35;;
81523;SDS011;70954;49.500;10.416;2023-07-31T09:39:11;1.95;;;1.10;;
81523;SDS011;70954;49.500;10.416;2023-07-31T09:41:38;2.55;;;1.08;;
81523;SDS011;70954;49.500;10.416;2023-07-31T09:44:04;3.13;;;1.10;;
81523;SDS011;70954;49.500;10.416;2023-07-31T09:46:30;2.50;;;1.23;;
81523;SDS011;70954;49.500;10.416;2023-07-31T09:49:05;3.38;;;1.25;;
81523;SDS011;70954;49.500;10.416;2023-07-31T09:51:31;2.92;;;1.23;;
81523;SDS011;70954;49.500;10.416;2023-07-31T09:53:57;2.70;;;0.90;;
81523;SDS011;70954;49.500;10.416;2023-07-31T09:56:23;2.47;;;1.23;;
81523;SDS011;70954;49.500;10.416;2023-07-31T09:58:48;2.38;;;0.93;;
81523;SDS011;70954;49.500;10.416;2023-07-31T10:01:15;3.97;;;1.40;;
81523;SDS011;70954;49.500;10.416;2023-07-31T10:03:40;2.78;;;1.20;;
81523;SDS011;70954;49.500;10.416;2023-07-31T10:06:07;2.95;;;1.40;;
81523;SDS011;70954;49.500;10.416;2023-07-31T10:08:34;2.92;;;1.15;;
81523;SDS011;70954;49.500;10.416;2023-07-31T10:11:01;2.53;;;1.10;;
81523;SDS011;70954;49.500;10.416;2023-07-31T10:13:27;2.38;;;1.10;;
81523;SDS011;70954;49.500;10.416;2023-07-31T10:15:53;2.30;;;1.15;;
81523;SDS011;70954;49.500;10.416;2023-07-31T10:18:19;1.95;;;1.10;;
81523;SDS011;70954;49.500;10.416;2023-07-31T10:20:45;1.88;;;0.90;;
81523;SDS011;70954;49.500;10.416;2023-07-31T10:23:11;2.30;;;1.10;;
81523;SDS011;70954;49.500;10.416;2023-07-31T10:25:37;4.22;;;1.40;;
81523;SDS011;70954;49.500;10.416;2023-07-31T10:28:03;2.60;;;1.20;;
81523;SDS011;70954;49.500;10.416;2023-07-31T10:30:30;1.65;;;1.00;;
81523;SDS011;70954;49.500;10.416;2023-07-31T10:32:58;3.10;;;1.20;;
81523;SDS011;70954;49.500;10.416;2023-07-31T10:35:24;2.33;;;1.00;;
81523;SDS011;70954;49.500;10.416;2023-07-31T10:37:49;2.08;;;1.20;;
81523;SDS011;70954;49.500;10.416;2023-07-31T10:40:18;2.90;;;1.00;;
81523;SDS011;70954;49.500;10.416;2023-07-31T10:42:48;2.05;;;1.00;;
81523;SDS011;70954;49.500;10.416;2023-07-31T10:47:59;2.47;;;1.08;;
81523;SDS011;70954;49.500;10.416;2023-07-31T10:50:25;2.10;;;1.30;;
81523;SDS011;70954;49.500;10.416;2023-07-31T10:52:54;3.65;;;1.23;;
81523;SDS011;70954;49.500;10.416;2023-07-31T10:55:25;2.33;;;1.13;;
81523;SDS011;70954;49.500;10.416;2023-07-31T10:57:54;2.05;;;1.08;;
81523;SDS011;70954;49.500;10.416;2023-07-31T11:00:22;2.30;;;1.13;;
81523;SDS011;70954;49.500;10.416;2023-07-31T11:02:58;4.60;;;1.30;;
81523;SDS011;70954;49.500;10.416;2023-07-31T11:10:48;2.05;;;1.00;;
81523;SDS011;70954;49.500;10.416;2023-07-31T11:13:16;2.50;;;1.00;;
81523;SDS011;70954;49.500;10.416;2023-07-31T11:15:41;3.38;;;1.17;;
81523;SDS011;70954;49.500;10.416;2023-07-31T11:18:07;2.78;;;1.20;;
81523;SDS011;70954;49.500;10.416;2023-07-31T11:20:32;2.70;;;1.25;;
81523;SDS011;70954;49.500;10.416;2023-07-31T11:23:00;1.88;;;1.17;;
81523;SDS011;70954;49.500;10.416;2023-07-31T11:25:26;1.80;;;0.90;;
81523;SDS011;70954;49.500;10.416;2023-07-31T11:27:54;3.75;;;1.30;;
81523;SDS011;70954;49.500;10.416;2023-07-31T11:30:20;1.95;;;1.17;;
81523;SDS011;70954;49.500;10.416;2023-07-31T11:32:45;2.25;;;1.17;;
81523;SDS011;70954;49.500;10.416;2023-07-31T11:35:14;1.80;;;1.20;;
81523;SDS011;70954;49.500;10.416;2023-07-31T11:37:40;2.47;;;1.15;;
81523;SDS011;70954;49.500;10.416;2023-07-31T11:40:06;2.72;;;1.25;;
81523;SDS011;70954;49.500;10.416;2023-07-31T11:42:32;2.13;;;1.20;;
81523;SDS011;70954;49.500;10.416;2023-07-31T11:45:02;1.58;;;1.00;;
81523;SDS011;70954;49.500;10.416;2023-07-31T11:47:34;2.15;;;0.98;;
81523;SDS011;70954;49.500;10.416;2023-07-31T11:50:01;2.53;;;1.02;;
81523;SDS011;70954;49.500;10.416;2023-07-31T11:52:28;2.13;;;1.10;;
81523;SDS011;70954;49.500;10.416;2023-07-31T11:57:22;3.22;;;1.17;;
81523;SDS011;70954;49.500;10.416;2023-07-31T11:59:49;4.35;;;1.25;;
81523;SDS011;70954;49.500;10.416;2023-07-31T12:02:15;3.28;;;1.08;;
81523;SDS011;70954;49.500;10.416;2023-07-31T12:04:42;1.90;;;1.20;;
81523;SDS011;70954;49.500;10.416;2023-07-31T12:07:07;2.30;;;1.10;;
81523;SDS011;70954;49.500;10.416;2023-07-31T12:09:33;4.43;;;1.30;;
81523;SDS011;70954;49.500;10.416;2023-07-31T12:11:58;2.08;;;0.90;;
81523;SDS011;70954;49.500;10.416;2023-07-31T12:14:24;1.55;;;0.95;;
81523;SDS011;70954;49.500;10.416;2023-07-31T12:16:58;2.50;;;1.10;;
81523;SDS011;70954;49.500;10.416;2023-07-31T12:19:25;2.63;;;0.93;;
81523;SDS011;70954;49.500;10.416;2023-07-31T12:21:51;1.50;;;1.10;;
81523;SDS011;70954;49.500;10.416;2023-07-31T12:24:18;2.30;;;0.95;;
81523;SDS011;70954;49.500;10.416;2023-07-31T12:26:45;2.58;;;1.20;;
81523;SDS011;70954;49.500;10.416;2023-07-31T12:29:11;3.50;;;1.00;;
81523;SDS011;70954;49.500;10.416;2023-07-31T12:31:36;4.30;;;1.40;;
81523;SDS011;70954;49.500;10.416;2023-07-31T12:34:01;2.78;;;1.40;;
81523;SDS011;70954;49.500;10.416;2023-07-31T12:36:27;2.72;;;1.23;;
81523;SDS011;70954;49.500;10.416;2023-07-31T12:38:52;2.42;;;1.33;;
81523;SDS011;70954;49.500;10.416;2023-07-31T12:41:19;2.42;;;1.13;;
81523;SDS011;70954;49.500;10.416;2023-07-31T12:43:45;1.83;;;1.20;;
81523;SDS011;70954;49.500;10.416;2023-07-31T12:46:10;2.92;;;1.10;;
81523;SDS011;70954;49.500;10.416;2023-07-31T12:48:39;3.10;;;1.27;;
81523;SDS011;70954;49.500;10.416;2023-07-31T12:51:05;2.75;;;1.52;;
81523;SDS011;70954;49.500;10.416;2023-07-31T12:53:30;2.13;;;1.33;;
81523;SDS011;70954;49.500;10.416;2023-07-31T12:55:56;2.85;;;1.25;;
81523;SDS011;70954;49.500;10.416;2023-07-31T12:58:21;2.42;;;1.48;;
81523;SDS011;70954;49.500;10.416;2023-07-31T13:00:47;2.67;;;1.42;;
81523;SDS011;70954;49.500;10.416;2023-07-31T13:03:13;2.22;;;1.52;;
81523;SDS011;70954;49.500;10.416;2023-07-31T13:05:38;2.92;;;1.48;;
81523;SDS011;70954;49.500;10.416;2023-07-31T13:08:04;2.47;;;1.40;;
81523;SDS011;70954;49.500;10.416;2023-07-31T13:10:29;4.07;;;1.60;;
81523;SDS011;70954;49.500;10.416;2023-07-31T13:12:55;2.83;;;1.48;;
81523;SDS011;70954;49.500;10.416;2023-07-31T13:15:20;1.67;;;1.20;;
81523;SDS011;70954;49.500;10.416;2023-07-31T13:17:46;3.03;;;1.15;;
81523;SDS011;70954;49.500;10.416;2023-07-31T13:20:11;2.75;;;1.10;;
81523;SDS011;70954;49.500;10.416;2023-07-31T13:22:37;2.70;;;1.20;;
81523;SDS011;70954;49.500;10.416;2023-07-31T13:25:03;3.22;;;1.30;;
81523;SDS011;70954;49.500;10.416;2023-07-31T13:27:28;3.35;;;1.55;;
81523;SDS011;70954;49.500;10.416;2023-07-31T13:29:54;5.25;;;1.50;;
81523;SDS011;70954;49.500;10.416;2023-07-31T13:32:20;2.88;;;1.48;;
81523;SDS011;70954;49.500;10.416;2023-07-31T13:34:46;3.22;;;1.70;;
81523;SDS011;70954;49.500;10.416;2023-07-31T13:37:12;4.43;;;1.92;;
81523;SDS011;70954;49.500;10.416;2023-07-31T13:39:38;3.40;;;1.40;;
81523;SDS011;70954;49.500;10.416;2023-07-31T13:42:04;2.25;;;1.33;;
81523;SDS011;70954;49.500;10.416;2023-07-31T13:44:31;3.58;;;1.98;;
81523;SDS011;70954;49.500;10.416;2023-07-31T13:46:56;4.32;;;1.48;;
81523;SDS011;70954;49.500;10.416;2023-07-31T13:49:22;3.40;;;1.20;;
81523;SDS011;70954;49.500;10.416;2023-07-31T13:51:47;4.45;;;1.60;;
81523;SDS011;70954;49.500;10.416;2023-07-31T13:54:13;3.95;;;1.52;;
81523;SDS011;70954;49.500;10.416;2023-07-31T13:56:38;3.40;;;1.50;;
81523;SDS011;70954;49.500;10.416;2023-07-31T13:59:04;4.85;;;1.52;;
81523;SDS011;70954;49.500;10.416;2023-07-31T14:01:29;2.30;;;1.20;;
81523;SDS011;70954;49.500;10.416;2023-07-31T14:03:55;2.75;;;1.52;;
81523;SDS011;70954;49.500;10.416;2023-07-31T14:06:21;2.60;;;1.38;;
81523;SDS011;70954;49.500;10.416;2023-07-31T14:08:46;2.13;;;1.35;;
81523;SDS011;70954;49.500;10.416;2023-07-31T14:11:12;3.10;;;1.40;;
81523;SDS011;70954;49.500;10.416;2023-07-31T14:13:37;2.75;;;1.42;;
81523;SDS011;70954;49.500;10.416;2023-07-31T14:16:03;1.50;;;1.20;;
81523;SDS011;70954;49.500;10.416;2023-07-31T14:18:28;4.07;;;1.50;;
81523;SDS011;70954;49.500;10.416;2023-07-31T14:20:54;2.00;;;1.10;;
81523;SDS011;70954;49.500;10.416;2023-07-31T14:23:19;2.33;;;1.33;;
81523;SDS011;70954;49.500;10.416;2023-07-31T14:25:45;3.08;;;1.35;;
81523;SDS011;70954;49.500;10.416;2023-07-31T14:28:11;3.28;;;1.45;;
81523;SDS011;70954;49.500;10.416;2023-07-31T14:30:37;2.55;;;1.40;;
81523;SDS011;70954;49.500;10.416;2023-07-31T14:33:02;4.10;;;1.60;;
81523;SDS011;70954;49.500;10.416;2023-07-31T14:35:28;2.33;;;1.52;;
81523;SDS011;70954;49.500;10.416;2023-07-31T14:37:53;3.47;;;1.33;;
81523;SDS011;70954;49.500;10.416;2023-07-31T14:40:19;2.50;;;1.20;;
81523;SDS011;70954;49.500;10.416;2023-07-31T14:42:45;3.10;;;1.13;;